Time;durP1;ratioP1;P1;durP2;ratioP2;P2;SDS_P1;SDS_P2;PMS_P1;PMS_P2;Temp;Humidity;BMP_temperature;BMP_pressure;BME280_temperature;BME280_humidity;BME280_pressure;Samples;Min_cycle;Max_cycle;Signal;HPM_P1;HPM_P2
2022/04/22 00:00:08;;;;;;;16.10;8.85;;;;;;;;;;2098013;28;20011;-45
2022/04/22 00:01:10;;;;;;;14.75;7.68;;;;;;;;;;2098145;28;20044;-44
2022/04/22 00:02:11;;;;;;;18.60;8.93;;;;;;;;;;2098063;28;20052;-44
2022/04/22 00:03:12;;;;;;;16.25;7.65;;;;;;;;;;2098044;28;20045;-44
2022/04/22 00:04:14;;;;;;;16.08;8.20;;;;;;;;;;2098103;28;20072;-45
2022/04/22 00:05:15;;;;;;;14.10;7.63;;;;;;;;;;2098008;28;20127;-44
2022/04/22 00:06:16;;;;;;;16.15;7.95;;;;;;;;;;2098139;28;20178;-45
2022/04/22 00:07:17;;;;;;;15.38;7.88;;;;;;;;;;2097944;28;20173;-45
2022/04/22 00:08:21;;;;;;;15.77;8.10;;;;;;;;;;2098018;28;20052;-45
2022/04/22 00:09:22;;;;;;;13.35;6.93;;;;;;;;;;2097893;28;20101;-44
2022/04/22 00:10:23;;;;;;;13.00;7.07;;;;;;;;;;2098062;28;20405;-44
2022/04/22 00:11:30;;;;;;;17.48;8.20;;;;;;;;;;2098052;28;20045;-44
2022/04/22 00:12:31;;;;;;;12.55;7.25;;;;;;;;;;2097973;28;20675;-45
2022/04/22 00:13:33;;;;;;;17.30;8.63;;;;;;;;;;2097991;28;20469;-44
2022/04/22 00:14:34;;;;;;;13.15;7.85;;;;;;;;;;2098051;28;20123;-45
2022/04/22 00:15:35;;;;;;;15.50;8.00;;;;;;;;;;2098009;28;20053;-44
2022/04/22 00:16:36;;;;;;;15.77;6.20;;;;;;;;;;2097937;28;20123;-44
2022/04/22 00:17:38;;;;;;;13.87;7.80;;;;;;;;;;2098027;28;20040;-45
2022/04/22 00:18:39;;;;;;;15.55;8.02;;;;;;;;;;2094886;28;20417;-44
2022/04/22 00:19:40;;;;;;;16.92;7.65;;;;;;;;;;2089685;28;20445;-45
2022/04/22 00:20:41;;;;;;;13.60;7.05;;;;;;;;;;2089690;28;20133;-44
2022/04/22 00:21:42;;;;;;;13.83;7.77;;;;;;;;;;2089769;28;20513;-44
2022/04/22 00:22:44;;;;;;;14.15;7.60;;;;;;;;;;2094892;28;20055;-45
2022/04/22 00:23:46;;;;;;;15.02;8.38;;;;;;;;;;2097956;28;20174;-44
2022/04/22 00:24:49;;;;;;;13.77;7.05;;;;;;;;;;2097821;28;20052;-45
2022/04/22 00:25:50;;;;;;;18.57;8.63;;;;;;;;;;2098052;28;20056;-45
2022/04/22 00:26:51;;;;;;;15.90;7.90;;;;;;;;;;2097889;28;20140;-44
2022/04/22 00:27:52;;;;;;;18.00;9.10;;;;;;;;;;2097850;28;20044;-45
2022/04/22 00:28:53;;;;;;;16.90;8.70;;;;;;;;;;2097784;28;20507;-44
2022/04/22 00:29:54;;;;;;;14.88;8.45;;;;;;;;;;2097773;28;20127;-44
2022/04/22 00:30:55;;;;;;;18.42;8.57;;;;;;;;;;2098042;28;20052;-44
2022/04/22 00:31:56;;;;;;;18.20;8.90;;;;;;;;;;2097911;28;20048;-44
2022/04/22 00:32:57;;;;;;;17.80;8.45;;;;;;;;;;2097856;28;20413;-44
2022/04/22 00:33:58;;;;;;;16.30;8.43;;;;;;;;;;2097809;28;20059;-44
2022/04/22 00:35:00;;;;;;;16.02;8.38;;;;;;;;;;2097917;28;20124;-44
2022/04/22 00:36:01;;;;;;;16.70;7.67;;;;;;;;;;2097952;28;20139;-44
2022/04/22 00:37:02;;;;;;;14.52;7.93;;;;;;;;;;2097761;28;20364;-44
2022/04/22 00:38:03;;;;;;;12.85;7.35;;;;;;;;;;2097962;28;20057;-44
2022/04/22 00:39:05;;;;;;;15.38;7.28;;;;;;;;;;2097794;28;20128;-44
2022/04/22 00:40:06;;;;;;;14.25;7.65;;;;;;;;;;2097873;28;20048;-45
2022/04/22 00:41:08;;;;;;;13.82;7.30;;;;;;;;;;2097769;28;20132;-44
2022/04/22 00:42:10;;;;;;;15.48;7.60;;;;;;;;;;2097762;28;20650;-44
2022/04/22 00:43:10;;;;;;;;;;;;;;;;;;2098264;28;20051;-44
2022/04/22 00:44:12;;;;;;;14.82;7.28;;;;;;;;;;2097782;28;19942;-45
2022/04/22 00:45:13;;;;;;;15.05;7.60;;;;;;;;;;2097862;28;20135;-44
2022/04/22 00:46:14;;;;;;;12.07;6.53;;;;;;;;;;2097744;28;20561;-44
2022/04/22 00:47:15;;;;;;;14.55;7.07;;;;;;;;;;2097906;28;20052;-44
2022/04/22 00:48:16;;;;;;;12.57;6.80;;;;;;;;;;2097718;28;20099;-44
2022/04/22 00:49:17;;;;;;;13.88;6.75;;;;;;;;;;2097708;28;20683;-44
2022/04/22 00:50:18;;;;;;;11.30;6.63;;;;;;;;;;2097791;28;20078;-44
2022/04/22 00:51:21;;;;;;;11.98;5.97;;;;;;;;;;2097729;28;20140;-44
2022/04/22 00:52:23;;;;;;;12.02;5.97;;;;;;;;;;2097653;28;20131;-44
2022/04/22 00:53:25;;;;;;;12.90;6.78;;;;;;;;;;2097858;28;20128;-44
2022/04/22 00:54:27;;;;;;;10.90;5.68;;;;;;;;;;2097514;28;20132;-44
2022/04/22 00:55:29;;;;;;;10.48;6.03;;;;;;;;;;2097753;28;20050;-44
2022/04/22 00:56:31;;;;;;;12.40;6.20;;;;;;;;;;2097700;28;20165;-44
2022/04/22 00:57:32;;;;;;;10.98;6.05;;;;;;;;;;2097696;28;20462;-44
2022/04/22 00:58:35;;;;;;;9.90;5.18;;;;;;;;;;2097716;28;20119;-44
2022/04/22 00:59:37;;;;;;;10.85;5.95;;;;;;;;;;2097742;28;20068;-44
2022/04/22 01:00:38;;;;;;;10.63;5.40;;;;;;;;;;2097898;28;20127;-45
2022/04/22 01:01:39;;;;;;;11.73;6.25;;;;;;;;;;2097682;28;20041;-44
2022/04/22 01:02:41;;;;;;;13.10;5.47;;;;;;;;;;2097791;28;20052;-44
2022/04/22 01:09:47;;;;;;;12.02;6.40;;;;;;;;;;2097579;28;20323;-44
2022/04/22 01:10:23;;;;;;;12.55;6.05;;;;;;;;;;2097623;28;20136;-64
2022/04/22 01:11:27;;;;;;;12.88;6.85;;;;;;;;;;2097820;28;20055;-64
2022/04/22 01:12:30;;;;;;;12.98;7.05;;;;;;;;;;2097590;28;20048;-65
2022/04/22 01:13:31;;;;;;;13.85;6.25;;;;;;;;;;2097466;28;20167;-65
2022/04/22 01:14:32;;;;;;;13.05;6.40;;;;;;;;;;2097655;28;20049;-64
2022/04/22 01:15:34;;;;;;;;;;;;;;;;;;2098009;28;20044;-64
2022/04/22 01:16:35;;;;;;;12.02;6.53;;;;;;;;;;2097477;28;19920;-64
2022/04/22 01:17:37;;;;;;;10.73;5.97;;;;;;;;;;2097728;28;20048;-64
2022/04/22 01:18:37;;;;;;;10.00;5.55;;;;;;;;;;2096990;28;20070;-65
2022/04/22 01:19:39;;;;;;;13.90;5.95;;;;;;;;;;2096742;28;20076;-67
2022/04/22 01:20:40;;;;;;;13.43;6.32;;;;;;;;;;2097657;28;20127;-65
2022/04/22 01:21:41;;;;;;;10.83;5.87;;;;;;;;;;2097520;28;20455;-65
2022/04/22 01:22:43;;;;;;;12.25;6.50;;;;;;;;;;2097677;28;20044;-66
2022/04/22 01:23:44;;;;;;;11.48;5.70;;;;;;;;;;2097552;28;20140;-66
2022/04/22 01:24:45;;;;;;;11.73;6.38;;;;;;;;;;2097564;28;20052;-65
2022/04/22 01:25:46;;;;;;;10.18;5.75;;;;;;;;;;2097531;28;20507;-64
2022/04/22 01:26:49;;;;;;;12.63;5.43;;;;;;;;;;2097630;28;20051;-64
2022/04/22 01:27:51;;;;;;;10.85;5.55;;;;;;;;;;2097538;28;20147;-64
2022/04/22 01:28:51;;;;;;;9.75;5.35;;;;;;;;;;2097546;28;20127;-64
2022/04/22 01:29:53;;;;;;;12.25;6.05;;;;;;;;;;2097757;28;20378;-64
2022/04/22 01:30:54;;;;;;;10.70;5.65;;;;;;;;;;2097432;28;20125;-63
2022/04/22 01:31:55;;;;;;;12.43;6.03;;;;;;;;;;2097493;28;20048;-65
2022/04/22 01:32:56;;;;;;;13.27;6.40;;;;;;;;;;2097527;28;20049;-67
2022/04/22 01:33:58;;;;;;;10.48;6.18;;;;;;;;;;2097510;28;20126;-67
2022/04/22 01:34:59;;;;;;;13.18;6.93;;;;;;;;;;2097369;28;20401;-64
2022/04/22 01:36:00;;;;;;;11.77;6.40;;;;;;;;;;2097430;28;20489;-66
2022/04/22 01:37:02;;;;;;;14.48;7.25;;;;;;;;;;2097511;28;20098;-63
2022/04/22 01:38:03;;;;;;;11.73;6.25;;;;;;;;;;2097617;28;20119;-67
2022/04/22 01:39:04;;;;;;;11.70;6.18;;;;;;;;;;2097477;28;20080;-63
2022/04/22 01:40:06;;;;;;;9.82;5.18;;;;;;;;;;2097395;28;20048;-66
2022/04/22 01:41:07;;;;;;;10.20;6.00;;;;;;;;;;2097372;28;20056;-64
2022/04/22 01:42:09;;;;;;;12.68;6.10;;;;;;;;;;2097382;28;20040;-66
2022/04/22 01:43:09;;;;;;;12.50;5.95;;;;;;;;;;2097502;28;20128;-65
2022/04/22 01:44:11;;;;;;;12.23;6.50;;;;;;;;;;2097261;28;20186;-63
2022/04/22 01:45:12;;;;;;;12.73;6.70;;;;;;;;;;2097539;28;20048;-64
2022/04/22 01:46:15;;;;;;;11.90;6.50;;;;;;;;;;2097444;28;20131;-65
2022/04/22 01:47:16;;;;;;;12.18;6.63;;;;;;;;;;2097473;28;20048;-64
2022/04/22 01:48:18;;;;;;;12.05;6.35;;;;;;;;;;2097363;28;20504;-62
2022/04/22 01:49:19;;;;;;;10.07;5.88;;;;;;;;;;2097280;28;20045;-63
2022/04/22 01:50:20;;;;;;;10.70;6.53;;;;;;;;;;2097446;28;20083;-65
2022/04/22 01:51:21;;;;;;;12.07;6.25;;;;;;;;;;2097375;28;20146;-65
2022/04/22 01:52:23;;;;;;;11.13;6.10;;;;;;;;;;2097463;28;20040;-65
2022/04/22 01:53:24;;;;;;;12.90;6.60;;;;;;;;;;2097316;28;20050;-65
2022/04/22 01:54:25;;;;;;;12.57;6.10;;;;;;;;;;2097396;28;20131;-66
2022/04/22 01:55:27;;;;;;;11.60;6.43;;;;;;;;;;2097312;28;20364;-66
2022/04/22 01:56:28;;;;;;;15.02;6.55;;;;;;;;;;2097312;28;20451;-65
2022/04/22 01:57:29;;;;;;;13.48;7.40;;;;;;;;;;2097338;28;20051;-63
2022/04/22 01:58:30;;;;;;;11.18;5.95;;;;;;;;;;2097229;28;20076;-62
2022/04/22 01:59:31;;;;;;;10.85;5.97;;;;;;;;;;2097229;28;20444;-66
2022/04/22 02:00:32;;;;;;;11.65;6.22;;;;;;;;;;2097434;28;20124;-66
2022/04/22 02:01:34;;;;;;;12.70;6.60;;;;;;;;;;2097289;28;20041;-66
2022/04/22 02:02:35;;;;;;;13.38;6.90;;;;;;;;;;2097267;28;20490;-65
2022/04/22 02:03:36;;;;;;;13.07;6.35;;;;;;;;;;2097341;28;20086;-64
2022/04/22 02:04:37;;;;;;;14.25;6.95;;;;;;;;;;2097262;28;20119;-65
2022/04/22 02:05:40;;;;;;;10.40;6.05;;;;;;;;;;2097292;28;20394;-64
2022/04/22 02:06:41;;;;;;;;;;;;;;;;;;2097728;28;20041;-66
2022/04/22 02:07:43;;;;;;;12.52;5.95;;;;;;;;;;2097465;28;20412;-67
2022/04/22 02:08:44;;;;;;;10.40;5.68;;;;;;;;;;2097150;28;20675;-65
2022/04/22 02:09:45;;;;;;;12.10;5.90;;;;;;;;;;2097214;28;20044;-64
2022/04/22 02:10:46;;;;;;;11.63;5.65;;;;;;;;;;2097290;28;20135;-65
2022/04/22 02:11:48;;;;;;;13.10;6.53;;;;;;;;;;2097427;28;20457;-65
2022/04/22 02:12:49;;;;;;;9.70;5.90;;;;;;;;;;2097383;28;20577;-66
2022/04/22 02:13:50;;;;;;;11.95;6.88;;;;;;;;;;2097166;28;20436;-64
2022/04/22 02:14:51;;;;;;;12.23;6.05;;;;;;;;;;2097070;28;20068;-64
2022/04/22 02:15:53;;;;;;;11.90;6.83;;;;;;;;;;2097215;28;20068;-64
2022/04/22 02:16:54;;;;;;;11.77;6.45;;;;;;;;;;2097215;28;20512;-65
2022/04/22 02:17:55;;;;;;;10.88;5.90;;;;;;;;;;2097179;28;20052;-66
2022/04/22 02:18:57;;;;;;;13.20;6.50;;;;;;;;;;2091897;28;20052;-63
2022/04/22 02:19:58;;;;;;;;;;;;;;;;;;2089405;28;20052;-64
2022/04/22 02:20:59;;;;;;;10.95;6.20;;;;;;;;;;2088901;28;19921;-64
2022/04/22 02:22:00;;;;;;;13.43;6.30;;;;;;;;;;2088952;28;20106;-65
2022/04/22 02:23:02;;;;;;;12.02;6.20;;;;;;;;;;2089027;28;20057;-67
2022/04/22 02:24:03;;;;;;;10.75;6.05;;;;;;;;;;2088871;28;20077;-66
2022/04/22 02:25:04;;;;;;;11.30;6.50;;;;;;;;;;2088849;28;20401;-66
2022/04/22 02:26:06;;;;;;;11.35;6.55;;;;;;;;;;2089081;28;20128;-66
2022/04/22 02:28:32;;;;;;;12.32;6.95;;;;;;;;;;2088996;28;20052;-67
2022/04/22 02:29:34;;;;;;;13.25;7.20;;;;;;;;;;2088729;28;20037;-67
2022/04/22 02:30:35;;;;;;;13.90;7.43;;;;;;;;;;2088955;28;20124;-67
2022/04/22 02:31:36;;;;;;;11.98;6.88;;;;;;;;;;2089251;28;20045;-66
2022/04/22 02:32:37;;;;;;;14.27;8.15;;;;;;;;;;2090343;28;20490;-65
2022/04/22 02:33:40;;;;;;;13.32;6.60;;;;;;;;;;2090513;28;20045;-64
2022/04/22 02:34:41;;;;;;;12.60;6.55;;;;;;;;;;2090370;28;20106;-65
2022/04/22 02:35:42;;;;;;;13.60;7.23;;;;;;;;;;2090398;28;20137;-63
2022/04/22 02:36:44;;;;;;;16.10;7.53;;;;;;;;;;2090314;28;20049;-65
2022/04/22 02:37:45;;;;;;;12.93;7.43;;;;;;;;;;2090300;28;20537;-66
2022/04/22 02:38:46;;;;;;;12.38;7.10;;;;;;;;;;2090421;28;20132;-66
2022/04/22 02:39:48;;;;;;;15.05;8.20;;;;;;;;;;2090398;28;20049;-66
2022/04/22 02:46:09;;;;;;;14.98;7.70;;;;;;;;;;2090508;28;20139;-66
2022/04/22 02:47:10;;;;;;;13.95;7.50;;;;;;;;;;2090285;28;20053;-65
2022/04/22 02:48:11;;;;;;;15.40;8.77;;;;;;;;;;2090407;28;20064;-65
2022/04/22 02:49:12;;;;;;;14.57;7.32;;;;;;;;;;2090227;28;20048;-64
2022/04/22 02:50:14;;;;;;;13.80;6.97;;;;;;;;;;2090178;28;20462;-65
2022/04/22 02:51:14;;;;;;;14.63;7.10;;;;;;;;;;2090361;28;20110;-65
2022/04/22 02:52:16;;;;;;;15.40;8.13;;;;;;;;;;2090225;28;20554;-68
2022/04/22 02:53:17;;;;;;;13.10;7.68;;;;;;;;;;2090243;28;20624;-65
2022/04/22 02:54:19;;;;;;;14.93;7.97;;;;;;;;;;2090035;28;20132;-65
2022/04/22 02:55:20;;;;;;;13.27;7.47;;;;;;;;;;2090423;28;20159;-65
2022/04/22 02:56:22;;;;;;;12.10;7.30;;;;;;;;;;2090440;28;20151;-65
2022/04/22 02:57:23;;;;;;;13.00;7.18;;;;;;;;;;2090175;28;20402;-64
2022/04/22 02:58:24;;;;;;;10.90;5.77;;;;;;;;;;2090131;28;20501;-64
2022/04/22 02:59:26;;;;;;;13.98;7.68;;;;;;;;;;2090086;28;20278;-64
2022/04/22 03:00:27;;;;;;;13.02;7.78;;;;;;;;;;2090131;28;20474;-64
2022/04/22 03:01:28;;;;;;;12.60;7.77;;;;;;;;;;2090107;28;20179;-63
2022/04/22 03:02:29;;;;;;;14.90;8.13;;;;;;;;;;2090117;28;20391;-64
2022/04/22 03:03:32;;;;;;;15.43;8.07;;;;;;;;;;2090308;28;20052;-64
2022/04/22 03:04:33;;;;;;;17.38;9.02;;;;;;;;;;2090073;28;20586;-64
2022/04/22 03:05:35;;;;;;;14.55;8.27;;;;;;;;;;2090104;28;20124;-65
2022/04/22 03:06:36;;;;;;;13.57;7.75;;;;;;;;;;2090295;28;20048;-45
2022/04/22 03:07:37;;;;;;;14.35;7.93;;;;;;;;;;2090039;28;20052;-45
2022/04/22 03:08:38;;;;;;;11.95;7.57;;;;;;;;;;2090135;28;20133;-44
2022/04/22 03:09:40;;;;;;;12.80;7.97;;;;;;;;;;2089970;28;20111;-45
2022/04/22 03:10:41;;;;;;;13.93;7.53;;;;;;;;;;2090211;28;20052;-45
2022/04/22 03:11:42;;;;;;;17.42;8.30;;;;;;;;;;2097352;28;20551;-44
2022/04/22 03:12:43;;;;;;;14.23;8.05;;;;;;;;;;2098436;28;20611;-44
2022/04/22 03:13:44;;;;;;;12.33;7.50;;;;;;;;;;2098400;28;20049;-44
2022/04/22 03:14:45;;;;;;;12.70;7.90;;;;;;;;;;2098497;28;20123;-45
2022/04/22 03:15:47;;;;;;;12.15;6.70;;;;;;;;;;2098510;28;20078;-44
2022/04/22 03:16:48;;;;;;;15.65;7.22;;;;;;;;;;2098284;28;20505;-44
2022/04/22 03:17:49;;;;;;;17.10;9.32;;;;;;;;;;2098390;28;20056;-45
2022/04/22 03:18:50;;;;;;;16.08;7.68;;;;;;;;;;2093711;28;20098;-44
2022/04/22 03:19:51;;;;;;;13.30;7.97;;;;;;;;;;2090127;28;20122;-44
2022/04/22 03:20:52;;;;;;;13.43;7.65;;;;;;;;;;2090032;28;20387;-44
2022/04/22 03:21:53;;;;;;;17.05;9.40;;;;;;;;;;2090132;28;20265;-45
2022/04/22 03:22:54;;;;;;;17.05;8.52;;;;;;;;;;2090010;28;20584;-45
2022/04/22 03:23:57;;;;;;;13.00;7.90;;;;;;;;;;2090218;28;20044;-44
2022/04/22 03:25:00;;;;;;;15.40;7.95;;;;;;;;;;2090117;28;20151;-45
2022/04/22 03:26:01;;;;;;;13.18;7.57;;;;;;;;;;2089981;28;20508;-45
2022/04/22 03:27:02;;;;;;;16.00;8.77;;;;;;;;;;2090165;28;20132;-45
2022/04/22 03:28:04;;;;;;;14.07;8.40;;;;;;;;;;2089962;28;20397;-45
2022/04/22 03:29:05;;;;;;;15.80;8.32;;;;;;;;;;2090193;28;20402;-66
2022/04/22 03:30:07;;;;;;;16.65;8.95;;;;;;;;;;2089919;28;20049;-65
2022/04/22 03:31:08;;;;;;;;;;;;;;;;;;2090701;28;20049;-45
2022/04/22 03:32:11;;;;;;;14.40;9.02;;;;;;;;;;2089896;28;19927;-45
2022/04/22 03:33:12;;;;;;;16.00;8.82;;;;;;;;;;2090082;28;20375;-45
2022/04/22 03:34:13;;;;;;;13.95;8.15;;;;;;;;;;2089926;28;20132;-45
2022/04/22 03:35:14;;;;;;;17.05;9.10;;;;;;;;;;2090144;28;20403;-45
2022/04/22 03:36:16;;;;;;;14.65;8.57;;;;;;;;;;2090197;28;20179;-45
2022/04/22 03:37:23;;;;;;;13.52;8.35;;;;;;;;;;2090074;28;20048;-62
2022/04/22 03:38:24;;;;;;;17.73;9.52;;;;;;;;;;2090059;28;20380;-45
2022/04/22 03:39:25;;;;;;;17.40;9.70;;;;;;;;;;2089957;28;20075;-45
2022/04/22 03:40:27;;;;;;;14.68;8.10;;;;;;;;;;2089997;28;20131;-45
2022/04/22 03:41:28;;;;;;;15.55;8.65;;;;;;;;;;2089916;28;20119;-45
2022/04/22 03:42:29;;;;;;;15.45;8.90;;;;;;;;;;2089298;28;20140;-45
2022/04/22 03:43:30;;;;;;;13.85;8.85;;;;;;;;;;2089764;28;20126;-45
2022/04/22 03:44:31;;;;;;;15.95;9.50;;;;;;;;;;2089871;28;20120;-44
2022/04/22 03:45:33;;;;;;;19.52;10.68;;;;;;;;;;2089925;28;20041;-45
2022/04/22 03:46:34;;;;;;;15.85;8.85;;;;;;;;;;2090007;28;20056;-44
2022/04/22 03:47:36;;;;;;;15.93;8.45;;;;;;;;;;2089975;28;20123;-45
2022/04/22 03:48:36;;;;;;;15.77;9.40;;;;;;;;;;2089804;28;20413;-45
2022/04/22 03:49:38;;;;;;;15.98;9.80;;;;;;;;;;2090033;28;20045;-45
2022/04/22 03:50:39;;;;;;;13.45;8.43;;;;;;;;;;2089942;28;20045;-45
2022/04/22 03:51:40;;;;;;;16.48;9.18;;;;;;;;;;2089981;28;20049;-45
2022/04/22 03:52:41;;;;;;;17.48;9.57;;;;;;;;;;2089803;28;20585;-45
2022/04/22 03:53:42;;;;;;;17.23;9.48;;;;;;;;;;2089871;28;20397;-45
2022/04/22 03:54:43;;;;;;;17.35;9.30;;;;;;;;;;2089773;28;20124;-45
2022/04/22 03:55:45;;;;;;;16.35;9.30;;;;;;;;;;2089758;28;20585;-45
2022/04/22 03:58:11;;;;;;;15.70;9.07;;;;;;;;;;2089978;28;20048;-44
2022/04/22 03:59:12;;;;;;;17.58;9.57;;;;;;;;;;2089744;28;20186;-45
2022/04/22 04:00:14;;;;;;;18.40;9.40;;;;;;;;;;2090356;28;20068;-63
2022/04/22 04:01:15;;;;;;;18.10;9.93;;;;;;;;;;2089888;28;20105;-64
2022/04/22 04:02:16;;;;;;;17.73;10.13;;;;;;;;;;2090048;28;20111;-45
2022/04/22 04:03:18;;;;;;;16.95;9.32;;;;;;;;;;2089739;28;20053;-45
2022/04/22 04:04:19;;;;;;;17.38;9.55;;;;;;;;;;2089669;28;20357;-45
2022/04/22 04:05:20;;;;;;;14.00;8.17;;;;;;;;;;2089907;28;20071;-45
2022/04/22 04:06:23;;;;;;;15.10;9.13;;;;;;;;;;2089832;28;20685;-61
2022/04/22 04:07:24;;;;;;;21.15;10.25;;;;;;;;;;2092210;28;20091;-62
2022/04/22 04:08:25;;;;;;;16.52;9.73;;;;;;;;;;2097977;28;20375;-62
2022/04/22 04:16:05;;;;;;;14.40;7.93;;;;;;;;;;2097985;28;20512;-62
2022/04/22 04:17:06;;;;;;;12.75;7.78;;;;;;;;;;2097863;28;20076;-61
2022/04/22 04:18:07;;;;;;;12.25;6.43;;;;;;;;;;2097987;28;20055;-64
2022/04/22 04:23:15;;;;;;;16.25;9.10;;;;;;;;;;2089693;28;20129;-62
2022/04/22 04:24:16;;;;;;;15.35;9.15;;;;;;;;;;2089514;28;20049;-64
2022/04/22 04:25:17;;;;;;;15.65;6.78;;;;;;;;;;2089891;28;20501;-45
2022/04/22 04:26:21;;;;;;;15.23;9.20;;;;;;;;;;2089575;28;20127;-45
2022/04/22 04:27:22;;;;;;;17.77;9.27;;;;;;;;;;2089701;28;20353;-45
2022/04/22 04:28:27;;;;;;;14.95;9.13;;;;;;;;;;2089523;28;20049;-45
2022/04/22 04:29:28;;;;;;;15.90;9.88;;;;;;;;;;2089678;28;20186;-45
2022/04/22 04:30:29;;;;;;;18.43;10.70;;;;;;;;;;2089510;28;20045;-45
2022/04/22 04:31:31;;;;;;;15.77;9.73;;;;;;;;;;2089657;28;20048;-45
2022/04/22 04:32:32;;;;;;;17.63;8.65;;;;;;;;;;2089505;28;20397;-45
2022/04/22 04:33:33;;;;;;;16.20;10.20;;;;;;;;;;2089554;28;20064;-45
2022/04/22 04:34:34;;;;;;;15.73;8.63;;;;;;;;;;2089655;28;20049;-44
2022/04/22 04:35:35;;;;;;;15.70;8.63;;;;;;;;;;2089487;28;20049;-45
2022/04/22 04:36:37;;;;;;;18.02;10.65;;;;;;;;;;2089855;28;20137;-61
2022/04/22 04:37:41;;;;;;;14.50;8.48;;;;;;;;;;2089473;28;20398;-61
2022/04/22 04:38:42;;;;;;;17.05;10.25;;;;;;;;;;2089534;28;20059;-64
2022/04/22 04:39:43;;;;;;;18.13;10.35;;;;;;;;;;2089540;28;20049;-63
2022/04/22 04:40:44;;;;;;;20.05;9.93;;;;;;;;;;2089476;28;20494;-62
2022/04/22 04:41:46;;;;;;;17.83;9.82;;;;;;;;;;2089493;28;20587;-61
2022/04/22 04:42:47;;;;;;;19.65;10.25;;;;;;;;;;2089477;28;20056;-62
2022/04/22 04:43:48;;;;;;;15.60;9.75;;;;;;;;;;2089433;28;20132;-61
2022/04/22 04:44:50;;;;;;;20.85;10.23;;;;;;;;;;2089456;28;20182;-62
2022/04/22 04:45:51;;;;;;;;;;;;;;;;;;2089991;28;20128;-62
2022/04/22 04:46:52;;;;;;;16.90;10.00;;;;;;;;;;2089405;28;20370;-61
2022/04/22 04:47:55;;;;;;;17.63;10.18;;;;;;;;;;2089440;28;20202;-62
2022/04/22 04:48:59;;;;;;;18.20;11.00;;;;;;;;;;2089375;28;20127;-62
2022/04/22 04:50:00;;;;;;;16.27;9.40;;;;;;;;;;2089334;28;20401;-62
2022/04/22 04:51:01;;;;;;;18.57;11.07;;;;;;;;;;2089396;28;20045;-61
2022/04/22 04:52:02;;;;;;;16.85;9.40;;;;;;;;;;2089409;28;20508;-61
2022/04/22 04:53:04;;;;;;;14.23;9.20;;;;;;;;;;2089448;28;20129;-61
2022/04/22 04:54:05;;;;;;;18.67;9.93;;;;;;;;;;2088652;28;20458;-61
2022/04/22 04:55:07;;;;;;;17.02;9.75;;;;;;;;;;2089112;28;20049;-61
2022/04/22 04:56:08;;;;;;;17.13;10.00;;;;;;;;;;2089504;28;20041;-61
2022/04/22 04:57:10;;;;;;;18.20;9.93;;;;;;;;;;2089404;28;20144;-61
2022/04/22 04:58:11;;;;;;;18.00;10.20;;;;;;;;;;2089386;28;20466;-62
2022/04/22 04:59:12;;;;;;;16.83;9.88;;;;;;;;;;2089456;28;20073;-61
2022/04/22 05:00:13;;;;;;;16.97;9.47;;;;;;;;;;2089397;28;20041;-61
2022/04/22 05:01:15;;;;;;;17.35;10.15;;;;;;;;;;2089422;28;20051;-62
2022/04/22 05:02:15;;;;;;;17.50;10.77;;;;;;;;;;2089387;28;20067;-62
2022/04/22 05:03:17;;;;;;;17.17;8.70;;;;;;;;;;2089582;28;20060;-64
2022/04/22 05:04:18;;;;;;;19.70;11.30;;;;;;;;;;2096697;28;20131;-63
2022/04/22 05:05:19;;;;;;;17.52;9.90;;;;;;;;;;2097869;28;20075;-45
2022/04/22 05:06:20;;;;;;;19.15;10.75;;;;;;;;;;2097728;28;20127;-44
2022/04/22 05:07:21;;;;;;;16.42;9.95;;;;;;;;;;2097819;28;20044;-45
2022/04/22 05:08:22;;;;;;;17.65;10.65;;;;;;;;;;2097884;28;20123;-45
2022/04/22 05:09:23;;;;;;;19.95;9.68;;;;;;;;;;2097695;28;20037;-45
2022/04/22 05:10:26;;;;;;;17.97;10.67;;;;;;;;;;2097703;28;20413;-45
2022/04/22 05:11:27;;;;;;;19.98;10.98;;;;;;;;;;2097592;28;20051;-45
2022/04/22 05:12:29;;;;;;;19.73;11.73;;;;;;;;;;2097731;28;20067;-45
2022/04/22 05:13:30;;;;;;;18.17;9.88;;;;;;;;;;2097521;28;20123;-44
2022/04/22 05:14:31;;;;;;;19.08;10.93;;;;;;;;;;2097710;28;20048;-44
2022/04/22 05:15:33;;;;;;;25.20;11.88;;;;;;;;;;2097605;28;20044;-44
2022/04/22 05:16:33;;;;;;;20.00;10.90;;;;;;;;;;2097690;28;20119;-44
2022/04/22 05:17:35;;;;;;;17.42;10.70;;;;;;;;;;2097561;28;20055;-45
2022/04/22 05:18:36;;;;;;;19.75;11.00;;;;;;;;;;2097408;28;20071;-44
2022/04/22 05:19:37;;;;;;;20.08;11.32;;;;;;;;;;2097546;28;20520;-45
2022/04/22 05:20:39;;;;;;;18.33;10.60;;;;;;;;;;2097564;28;20044;-45
2022/04/22 05:21:40;;;;;;;21.58;11.30;;;;;;;;;;2097550;28;20416;-45
2022/04/22 05:22:41;;;;;;;20.52;11.18;;;;;;;;;;2097397;28;20041;-45
2022/04/22 05:23:42;;;;;;;21.33;12.10;;;;;;;;;;2097593;28;20075;-45
2022/04/22 05:24:43;;;;;;;23.53;12.73;;;;;;;;;;2097573;28;20512;-44
2022/04/22 05:25:44;;;;;;;19.02;11.18;;;;;;;;;;2097643;28;20101;-44
2022/04/22 05:26:45;;;;;;;20.38;11.82;;;;;;;;;;2097674;28;20497;-45
2022/04/22 05:27:47;;;;;;;18.27;11.40;;;;;;;;;;2097681;28;20044;-44
2022/04/22 05:28:48;;;;;;;23.15;12.07;;;;;;;;;;2097465;28;20083;-45
2022/04/22 05:32:37;;;;;;;22.48;12.55;;;;;;;;;;2097621;28;20045;-44
2022/04/22 05:33:38;;;;;;;20.73;11.75;;;;;;;;;;2097393;28;20071;-44
2022/04/22 05:34:39;;;;;;;24.38;12.55;;;;;;;;;;2097419;28;20072;-44
2022/04/22 05:35:43;;;;;;;24.48;12.40;;;;;;;;;;2097377;28;20059;-45
2022/04/22 05:36:44;;;;;;;22.42;12.50;;;;;;;;;;2097432;28;20451;-45
2022/04/22 05:37:46;;;;;;;21.83;11.97;;;;;;;;;;2097517;28;20057;-45
2022/04/22 05:38:47;;;;;;;24.08;11.70;;;;;;;;;;2097430;28;20121;-45
2022/04/22 05:39:48;;;;;;;22.10;11.67;;;;;;;;;;2097481;28;20056;-45
2022/04/22 05:40:49;;;;;;;27.05;13.13;;;;;;;;;;2097346;28;20405;-45
2022/04/22 05:41:51;;;;;;;21.70;12.35;;;;;;;;;;2097435;28;20052;-45
2022/04/22 05:42:53;;;;;;;22.17;12.65;;;;;;;;;;2097386;28;20068;-45
2022/04/22 05:43:54;;;;;;;;;;;;;;;;;;2097790;28;20461;-45
2022/04/22 05:44:54;;;;;;;22.83;12.55;;;;;;;;;;2097458;28;20037;-45
2022/04/22 05:45:56;;;;;;;20.38;9.27;;;;;;;;;;2097567;28;20048;-45
2022/04/22 05:46:57;;;;;;;23.90;12.68;;;;;;;;;;2097310;28;20048;-45
2022/04/22 05:47:58;;;;;;;23.67;12.93;;;;;;;;;;2097467;28;20052;-45
2022/04/22 05:48:59;;;;;;;22.23;12.05;;;;;;;;;;2097280;28;20079;-45
2022/04/22 05:50:01;;;;;;;18.90;11.20;;;;;;;;;;2097459;28;20072;-45
2022/04/22 05:51:02;;;;;;;23.05;11.85;;;;;;;;;;2097514;28;20153;-45
2022/04/22 05:52:03;;;;;;;26.38;12.68;;;;;;;;;;2097272;28;20466;-45
2022/04/22 05:53:05;;;;;;;24.27;13.30;;;;;;;;;;2097451;28;20131;-45
2022/04/22 05:54:06;;;;;;;23.65;12.02;;;;;;;;;;2097278;28;20504;-44
2022/04/22 05:55:08;;;;;;;22.30;11.90;;;;;;;;;;2097376;28;20142;-45
2022/04/22 05:56:09;;;;;;;20.08;11.40;;;;;;;;;;2097274;28;20131;-44
2022/04/22 05:57:10;;;;;;;20.95;11.65;;;;;;;;;;2097475;28;20477;-44
2022/04/22 05:58:12;;;;;;;23.63;12.70;;;;;;;;;;2097422;28;20122;-44
2022/04/22 05:59:13;;;;;;;;;;;;;;;;;;2097720;28;20050;-45
2022/04/22 06:00:15;;;;;;;21.40;11.35;;;;;;;;;;2096962;28;20381;-45
2022/04/22 06:01:16;;;;;;;21.33;11.18;;;;;;;;;;2097403;28;20046;-44
2022/04/22 06:02:18;;;;;;;20.73;11.20;;;;;;;;;;2097435;28;20048;-44
2022/04/22 06:03:19;;;;;;;19.83;10.95;;;;;;;;;;2097201;28;20048;-44
2022/04/22 06:04:20;;;;;;;23.65;12.52;;;;;;;;;;2097354;28;20153;-44
2022/04/22 06:05:22;;;;;;;19.97;11.07;;;;;;;;;;2096964;28;20486;-44
2022/04/22 06:06:23;;;;;;;;;;;;;;;;;;2097690;28;20134;-44
2022/04/22 06:07:24;;;;;;;21.42;11.68;;;;;;;;;;2097250;28;19921;-44
2022/04/22 06:11:04;;;;;;;21.52;11.88;;;;;;;;;;2097183;28;20135;-45
2022/04/22 06:12:05;;;;;;;21.20;11.13;;;;;;;;;;2097186;28;20044;-44
2022/04/22 06:13:07;;;;;;;19.92;11.65;;;;;;;;;;2097345;28;20098;-44
2022/04/22 06:14:09;;;;;;;19.92;11.00;;;;;;;;;;2097118;28;20098;-45
2022/04/22 06:15:10;;;;;;;;;;;;;;;;;;2097801;28;20051;-44
2022/04/22 06:16:11;;;;;;;21.40;11.45;;;;;;;;;;2097177;28;20396;-44
2022/04/22 06:17:12;;;;;;;21.75;12.23;;;;;;;;;;2097218;28;20462;-44
2022/04/22 06:18:13;;;;;;;22.85;12.43;;;;;;;;;;2097161;28;20570;-44
2022/04/22 06:19:17;;;;;;;22.35;12.10;;;;;;;;;;2089551;28;20118;-64
2022/04/22 06:20:18;;;;;;;23.35;12.98;;;;;;;;;;2088879;28;20131;-63
2022/04/22 06:21:19;;;;;;;22.77;12.15;;;;;;;;;;2088957;28;20379;-63
2022/04/22 06:22:21;;;;;;;23.23;12.65;;;;;;;;;;2089068;28;20131;-63
2022/04/22 06:23:22;;;;;;;;;;;;;;;;;;2089354;28;20119;-63
2022/04/22 06:24:23;;;;;;;23.48;12.98;;;;;;;;;;2088883;28;20073;-64
2022/04/22 06:25:25;;;;;;;22.80;12.60;;;;;;;;;;2088923;28;20075;-64
2022/04/22 06:26:26;;;;;;;20.98;12.55;;;;;;;;;;2088903;28;20490;-65
2022/04/22 06:27:27;;;;;;;26.77;13.40;;;;;;;;;;2088989;28;20052;-66
2022/04/22 06:28:28;;;;;;;23.63;13.20;;;;;;;;;;2088831;28;20044;-65
2022/04/22 06:29:36;;;;;;;21.30;11.90;;;;;;;;;;2088898;28;20052;-64
2022/04/22 06:30:37;;;;;;;22.40;11.48;;;;;;;;;;2088850;28;20267;-65
2022/04/22 06:31:38;;;;;;;24.85;12.45;;;;;;;;;;2088827;28;20422;-65
2022/04/22 06:32:41;;;;;;;22.55;12.43;;;;;;;;;;2088817;28;20041;-64